Vineyard Haven, Massachusetts
Current Conditions -  °F | °C
As of 1:53 AM on Monday 22 Dec 2014 (Local Time) from KMVY Reporting Station
Overcast Overcast  
Wind Chill: 32°   Ceiling: 2000
Heat Index: 36°   Visibility: 10mi
Dew Point: 34°   Wind: 5mph
Humidity: 93%   Direction: 350°N
Pressure: 30.32"   Gusts: NA
Location:  41.46°N, 70.61°W
Report Text: KMVY 220653Z AUTO 35004KT 10SM OVC020 02/01 A3032 RMK AO2 SLP267 T00220011
Loading
Personal Weather Stations






























Interactive Weather Map New forecast layout! Learn more

10-Day Weather Forecast

Advertisements
Track Severe Weather on mobile